Time;durP1;ratioP1;P1;durP2;ratioP2;P2;SDS_P1;SDS_P2;PMS_P1;PMS_P2;Temp;Humidity;BMP_temperature;BMP_pressure;BME280_temperature;BME280_humidity;BME280_pressure;Samples;Min_cycle;Max_cycle;Signal;HPM_P1;HPM_P2
2021/05/01 00:01:37;;;;;;;27.33;14.27;;;8.20;99.90;;;;;;4449495;28;656772;-73
2021/05/01 00:04:25;;;;;;;28.73;15.60;;;8.20;99.90;;;;;;4465167;28;656602;-72
2021/05/01 00:07:12;;;;;;;30.30;16.30;;;8.20;99.90;;;;;;4442233;28;656398;-73
2021/05/01 00:09:59;;;;;;;27.77;15.57;;;8.20;99.90;;;;;;4469020;28;656524;-71
2021/05/01 00:12:46;;;;;;;25.20;15.13;;;8.10;99.90;;;;;;4459625;28;656113;-72
2021/05/01 00:15:33;;;;;;;29.10;15.35;;;8.20;99.90;;;;;;4442266;28;657032;-72
2021/05/01 00:18:21;;;;;;;27.67;14.75;;;8.10;99.90;;;;;;4460929;28;657599;-72
2021/05/01 00:21:09;;;;;;;25.83;14.63;;;8.20;99.90;;;;;;4440613;28;656926;-71
2021/05/01 00:23:56;;;;;;;29.23;15.83;;;8.20;99.90;;;;;;4454569;28;656539;-72
2021/05/01 00:26:44;;;;;;;31.67;17.52;;;8.20;99.90;;;;;;4443737;28;656298;-71
2021/05/01 00:29:31;;;;;;;27.63;15.60;;;8.20;99.90;;;;;;4460976;28;656574;-71
2021/05/01 00:32:18;;;;;;;31.03;15.77;;;8.30;99.90;;;;;;4442631;28;657266;-72
2021/05/01 00:35:07;;;;;;;22.93;13.07;;;8.30;99.90;;;;;;4453226;28;656485;-73
2021/05/01 00:37:55;;;;;;;23.83;14.43;;;8.30;99.90;;;;;;4428465;28;657404;-72
2021/05/01 00:40:42;;;;;;;27.83;16.00;;;8.30;99.90;;;;;;4432658;28;657404;-73
2021/05/01 00:43:30;;;;;;;23.20;14.77;;;8.30;99.90;;;;;;4453762;28;657798;-72
2021/05/01 00:46:17;;;;;;;25.60;15.53;;;8.30;99.90;;;;;;4457380;28;656445;-73
2021/05/01 00:49:05;;;;;;;26.40;16.15;;;8.30;99.90;;;;;;4454293;28;656774;-72
2021/05/01 00:51:53;;;;;;;27.73;15.93;;;8.30;99.90;;;;;;4455119;28;656661;-73
2021/05/01 00:54:41;;;;;;;29.37;16.77;;;8.30;99.90;;;;;;4465457;28;657614;-72
2021/05/01 00:57:28;;;;;;;27.03;15.83;;;8.30;99.90;;;;;;4439582;28;657584;-72
2021/05/01 01:00:32;;;;;;;26.30;16.80;;;8.30;99.90;;;;;;4453607;28;657528;-72
2021/05/01 01:03:19;;;;;;;26.07;15.73;;;8.20;99.90;;;;;;4434932;28;656634;-72
2021/05/01 01:06:06;;;;;;;25.43;15.83;;;8.20;99.90;;;;;;4458486;28;657059;-73
2021/05/01 01:08:53;;;;;;;29.57;17.03;;;8.20;99.90;;;;;;4431475;28;657267;-72
2021/05/01 01:11:41;;;;;;;28.03;16.23;;;8.20;99.90;;;;;;4458641;28;657686;-71
2021/05/01 01:14:28;;;;;;;26.43;15.87;;;8.10;99.90;;;;;;4431810;28;656678;-71
2021/05/01 01:17:15;;;;;;;27.20;16.70;;;8.10;99.90;;;;;;4460682;28;657279;-72
2021/05/01 01:20:03;;;;;;;25.23;15.37;;;8.10;99.90;;;;;;4436066;28;657072;-73
2021/05/01 01:22:51;;;;;;;28.97;16.23;;;7.90;99.90;;;;;;4466740;28;656995;-72
2021/05/01 01:25:38;;;;;;;21.90;13.63;;;7.90;99.90;;;;;;4434140;28;656713;-72
2021/05/01 01:28:26;;;;;;;25.43;16.60;;;7.80;99.90;;;;;;4456588;28;656885;-71
2021/05/01 01:31:13;;;;;;;26.53;14.33;;;7.80;99.90;;;;;;4439182;28;657114;-72
2021/05/01 01:34:00;;;;;;;27.60;16.97;;;7.80;99.90;;;;;;4461501;28;656933;-72
2021/05/01 01:36:48;;;;;;;28.75;16.85;;;7.70;99.90;;;;;;4432691;28;656406;-72
2021/05/01 01:39:36;;;;;;;28.20;16.87;;;7.70;99.90;;;;;;4458783;28;656991;-72
2021/05/01 01:42:23;;;;;;;27.87;17.30;;;7.70;99.90;;;;;;4447394;28;656575;-72
2021/05/01 01:45:11;;;;;;;29.37;15.50;;;7.60;99.90;;;;;;4466337;28;656530;-72
2021/05/01 01:47:58;;;;;;;34.23;18.23;;;7.60;99.90;;;;;;4439705;28;656710;-71
2021/05/01 01:50:46;;;;;;;30.27;18.17;;;7.70;99.90;;;;;;4453706;28;657226;-71
2021/05/01 01:53:36;;;;;;;25.37;16.47;;;7.70;99.90;;;;;;4431807;28;656707;-72
2021/05/01 01:56:25;;;;;;;28.50;17.60;;;7.70;99.90;;;;;;4430856;28;657204;-72
2021/05/01 01:59:12;;;;;;;29.77;17.37;;;7.80;99.90;;;;;;4446927;28;656628;-74
2021/05/01 02:01:59;;;;;;;27.63;17.57;;;7.80;99.90;;;;;;4450234;28;656738;-72
2021/05/01 02:04:46;;;;;;;29.10;17.50;;;7.80;99.90;;;;;;4449571;28;656225;-71
2021/05/01 02:07:33;;;;;;;30.90;16.63;;;7.90;99.90;;;;;;4430037;28;656501;-72
2021/05/01 02:10:20;;;;;;;32.33;17.43;;;7.90;99.90;;;;;;4450167;28;656984;-72
2021/05/01 02:13:08;;;;;;;28.40;17.07;;;7.90;99.90;;;;;;4442620;28;656656;-73
2021/05/01 02:15:56;;;;;;;28.27;16.73;;;7.90;99.90;;;;;;4460122;28;657371;-72
2021/05/01 02:18:43;;;;;;;29.30;17.63;;;7.90;99.90;;;;;;4439602;28;656717;-72
2021/05/01 02:21:30;;;;;;;29.17;16.40;;;8.00;99.90;;;;;;4462861;28;657392;-72
2021/05/01 02:24:17;;;;;;;29.63;16.87;;;7.90;99.90;;;;;;4468870;28;655703;-71
2021/05/01 02:27:04;;;;;;;27.33;17.33;;;8.00;99.90;;;;;;4430487;28;656819;-71
2021/05/01 02:29:52;;;;;;;28.13;17.70;;;8.00;99.90;;;;;;4459112;28;656701;-71
2021/05/01 02:32:39;;;;;;;28.70;18.00;;;8.00;99.90;;;;;;4425387;28;658189;-71
2021/05/01 02:35:27;;;;;;;31.33;17.80;;;8.00;99.90;;;;;;4464123;28;656708;-72
2021/05/01 02:38:14;;;;;;;28.07;17.23;;;8.00;99.90;;;;;;4430619;28;657113;-72
2021/05/01 02:41:01;;;;;;;29.17;17.03;;;8.10;99.90;;;;;;4458444;28;655869;-71
2021/05/01 02:43:48;;;;;;;25.37;16.87;;;8.10;99.90;;;;;;4442685;28;656771;-72
2021/05/01 02:46:36;;;;;;;26.87;16.87;;;8.10;99.90;;;;;;4449398;28;656921;-71
2021/05/01 02:49:23;;;;;;;28.27;17.60;;;8.10;99.90;;;;;;4434676;28;657267;-72
2021/05/01 02:52:10;;;;;;;28.73;17.00;;;8.10;99.90;;;;;;4467305;28;656970;-72
2021/05/01 02:54:57;;;;;;;29.50;17.73;;;8.10;99.90;;;;;;4438003;28;656651;-73
2021/05/01 02:57:44;;;;;;;27.20;16.73;;;8.20;99.90;;;;;;4453252;28;656372;-72
2021/05/01 03:00:31;;;;;;;31.60;19.13;;;8.10;99.90;;;;;;4454375;28;656846;-71
2021/05/01 03:03:19;;;;;;;26.77;17.23;;;8.10;99.90;;;;;;4430858;28;656505;-72
2021/05/01 03:06:06;;;;;;;27.70;17.87;;;8.20;99.90;;;;;;4457722;28;656560;-71
2021/05/01 03:08:53;;;;;;;31.90;18.03;;;8.20;99.90;;;;;;4429033;28;657666;-72
2021/05/01 03:11:40;;;;;;;30.77;17.87;;;8.10;99.90;;;;;;4462005;28;657223;-69
2021/05/01 03:14:27;;;;;;;32.50;17.97;;;8.10;99.90;;;;;;4441523;28;656617;-72
2021/05/01 03:17:15;;;;;;;33.07;18.30;;;8.10;99.90;;;;;;4448897;28;656597;-70
2021/05/01 03:20:04;;;;;;;30.00;17.67;;;8.10;99.90;;;;;;4445679;28;656587;-71
2021/05/01 03:22:51;;;;;;;31.87;18.33;;;8.10;99.90;;;;;;4455807;28;656866;-70
2021/05/01 03:25:38;;;;;;;28.80;17.37;;;8.10;99.90;;;;;;4437524;28;656636;-70
2021/05/01 03:28:24;;;;;;;32.40;18.30;;;8.10;99.90;;;;;;4455999;28;657060;-70
2021/05/01 03:31:11;;;;;;;32.23;19.33;;;8.10;99.90;;;;;;4457355;28;656643;-70
2021/05/01 03:33:58;;;;;;;41.27;22.73;;;8.10;99.90;;;;;;4437335;28;656600;-70
2021/05/01 03:36:46;;;;;;;30.53;17.60;;;8.10;99.90;;;;;;4449647;28;657178;-69
2021/05/01 03:39:33;;;;;;;27.60;17.20;;;8.10;99.90;;;;;;4434710;28;656601;-69
2021/05/01 03:42:20;;;;;;;27.30;17.10;;;8.00;99.90;;;;;;4460591;28;657377;-69
2021/05/01 03:45:08;;;;;;;29.37;18.03;;;8.10;99.90;;;;;;4430010;28;656522;-70
2021/05/01 03:47:55;;;;;;;30.87;17.33;;;8.00;99.90;;;;;;4455659;28;656836;-69
2021/05/01 03:50:42;;;;;;;27.53;17.43;;;8.00;99.90;;;;;;4445930;28;657095;-71
2021/05/01 03:53:30;;;;;;;27.17;17.47;;;8.00;99.90;;;;;;4461020;28;656233;-69
2021/05/01 03:56:17;;;;;;;31.10;18.60;;;8.00;99.90;;;;;;4438626;28;656351;-70
2021/05/01 03:59:05;;;;;;;33.50;18.70;;;8.00;99.90;;;;;;4466627;28;656708;-68
2021/05/01 04:01:52;;;;;;;37.97;18.53;;;8.00;99.90;;;;;;4453444;28;656159;-68
2021/05/01 04:04:38;;;;;;;29.33;18.53;;;8.00;99.90;;;;;;4441430;28;656607;-68
2021/05/01 04:07:26;;;;;;;36.60;20.53;;;7.90;99.90;;;;;;4457467;28;656623;-68
2021/05/01 04:10:13;;;;;;;39.47;22.03;;;7.90;99.90;;;;;;4431356;28;656457;-68
2021/05/01 04:13:00;;;;;;;38.13;21.10;;;7.80;99.90;;;;;;4451183;28;656768;-68
2021/05/01 04:15:47;;;;;;;33.23;20.77;;;7.70;99.90;;;;;;4437585;28;656759;-69
2021/05/01 04:18:34;;;;;;;35.97;20.37;;;7.60;99.90;;;;;;4459349;28;657375;-68
2021/05/01 04:21:21;;;;;;;35.07;20.90;;;7.50;99.90;;;;;;4461147;28;656504;-69
2021/05/01 04:24:09;;;;;;;33.63;20.77;;;7.50;99.90;;;;;;4436417;28;656380;-68
2021/05/01 04:26:57;;;;;;;34.00;20.13;;;7.50;99.90;;;;;;4456324;28;656539;-68
2021/05/01 04:29:44;;;;;;;37.97;21.97;;;7.50;99.90;;;;;;4431626;28;657523;-69
2021/05/01 04:32:31;;;;;;;33.77;20.27;;;7.40;99.90;;;;;;4454537;28;656174;-68
2021/05/01 04:35:18;;;;;;;35.70;20.80;;;7.40;99.90;;;;;;4443650;28;657129;-68
2021/05/01 04:38:05;;;;;;;37.28;20.60;;;7.50;99.90;;;;;;4463361;28;657111;-68
2021/05/01 04:40:52;;;;;;;36.38;21.75;;;7.50;99.90;;;;;;4434190;28;656625;-70
2021/05/01 04:43:42;;;;;;;36.70;21.60;;;7.50;99.90;;;;;;4463390;28;657591;-68
2021/05/01 04:46:29;;;;;;;39.57;22.17;;;7.50;99.90;;;;;;4433529;28;657987;-68
2021/05/01 04:49:16;;;;;;;36.07;21.97;;;7.50;99.90;;;;;;4449948;28;656613;-68
2021/05/01 04:52:03;;;;;;;34.93;21.20;;;7.60;99.90;;;;;;4436457;28;657129;-69
2021/05/01 04:54:52;;;;;;;35.83;21.23;;;7.60;99.90;;;;;;4450742;28;657170;-68
2021/05/01 04:57:40;;;;;;;35.37;21.80;;;7.60;99.90;;;;;;4433086;28;657758;-68
2021/05/01 05:00:28;;;;;;;37.43;21.37;;;7.60;99.90;;;;;;4432242;28;656880;-70
2021/05/01 05:03:15;;;;;;;42.20;22.50;;;7.70;99.90;;;;;;4456243;28;656434;-68
2021/05/01 05:06:03;;;;;;;32.37;20.33;;;7.70;99.90;;;;;;4436221;28;656535;-69
2021/05/01 05:08:50;;;;;;;36.20;22.30;;;7.70;99.90;;;;;;4453513;28;657123;-68
2021/05/01 05:11:37;;;;;;;36.63;22.10;;;7.70;99.90;;;;;;4459658;28;656452;-70
2021/05/01 05:14:24;;;;;;;35.67;21.67;;;7.60;99.90;;;;;;4470367;28;657314;-69
2021/05/01 05:17:12;;;;;;;34.37;21.00;;;7.60;99.90;;;;;;4458147;28;656637;-68
2021/05/01 05:19:59;;;;;;;35.00;20.70;;;7.50;99.90;;;;;;4435298;28;657023;-69
2021/05/01 05:22:49;;;;;;;35.50;21.77;;;7.50;99.90;;;;;;4453999;28;656158;-68
2021/05/01 05:25:36;;;;;;;36.67;21.87;;;7.50;99.90;;;;;;4433138;28;656214;-68
2021/05/01 05:28:26;;;;;;;34.57;21.53;;;7.50;99.90;;;;;;4434408;28;657115;-69
2021/05/01 05:31:13;;;;;;;36.27;21.67;;;7.50;99.90;;;;;;4444525;28;656764;-68
2021/05/01 05:34:01;;;;;;;40.03;22.53;;;7.60;99.90;;;;;;4459033;28;657805;-68
2021/05/01 05:36:48;;;;;;;37.00;21.93;;;7.60;99.90;;;;;;4446616;28;656766;-68
2021/05/01 05:39:35;;;;;;;41.93;23.33;;;7.70;99.90;;;;;;4465430;28;658061;-69
2021/05/01 05:42:23;;;;;;;39.43;23.37;;;7.70;99.90;;;;;;4454362;28;656833;-68
2021/05/01 05:45:11;;;;;;;35.47;20.90;;;7.70;99.90;;;;;;4454411;28;657235;-68
2021/05/01 05:47:58;;;;;;;41.83;22.43;;;7.80;99.90;;;;;;4428581;28;657180;-68
2021/05/01 05:50:46;;;;;;;41.57;22.73;;;7.80;99.90;;;;;;4458491;28;656636;-68
2021/05/01 05:53:33;;;;;;;40.33;23.10;;;7.80;99.90;;;;;;4440053;28;656704;-68
2021/05/01 05:56:20;;;;;;;40.83;21.43;;;7.80;99.90;;;;;;4460293;28;657380;-68
2021/05/01 05:59:07;;;;;;;38.83;20.90;;;7.80;99.90;;;;;;4445146;28;657324;-70
2021/05/01 06:01:54;;;;;;;34.93;21.17;;;7.90;99.90;;;;;;4468562;28;656436;-69
2021/05/01 06:04:44;;;;;;;35.67;21.13;;;8.00;99.90;;;;;;4458531;28;656605;-68
2021/05/01 06:07:33;;;;;;;39.13;21.43;;;8.00;99.90;;;;;;4435568;28;656666;-68
2021/05/01 06:10:20;;;;;;;34.57;20.57;;;8.00;99.90;;;;;;4437368;28;657383;-68
2021/05/01 06:13:07;;;;;;;31.17;18.33;;;8.00;99.90;;;;;;4434032;28;656715;-71
2021/05/01 06:15:55;;;;;;;35.28;20.92;;;8.10;99.90;;;;;;4466086;28;656855;-69
2021/05/01 06:18:43;;;;;;;36.93;22.17;;;8.10;99.90;;;;;;4432723;28;656924;-70
2021/05/01 06:21:30;;;;;;;33.87;19.63;;;8.10;99.90;;;;;;4463293;28;656301;-68
2021/05/01 06:24:18;;;;;;;32.17;20.30;;;8.20;99.90;;;;;;4434517;28;656872;-70
2021/05/01 06:27:06;;;;;;;39.20;23.17;;;8.30;99.90;;;;;;4458307;28;657187;-68
2021/05/01 06:29:53;;;;;;;44.50;23.43;;;8.40;99.90;;;;;;4437595;28;656570;-68
2021/05/01 06:32:40;;;;;;;37.60;22.70;;;8.40;99.90;;;;;;4457823;28;657293;-69
2021/05/01 06:35:27;;;;;;;42.17;23.53;;;8.50;99.90;;;;;;4450484;28;656789;-71
2021/05/01 06:38:14;;;;;;;41.17;23.70;;;8.50;99.90;;;;;;4456564;28;657063;-69
2021/05/01 06:41:06;;;;;;;38.00;21.87;;;8.70;99.90;;;;;;4459269;28;656412;-68
2021/05/01 06:44:02;;;;;;;41.20;22.63;;;8.70;99.90;;;;;;4412325;28;657549;-65
2021/05/01 06:46:49;;;;;;;36.87;22.27;;;8.60;99.90;;;;;;4434408;28;656314;-65
2021/05/01 06:49:43;;;;;;;40.20;22.83;;;8.50;99.90;;;;;;4453710;28;656045;-66
2021/05/01 06:52:31;;;;;;;43.03;23.23;;;8.50;99.90;;;;;;4425933;28;656448;-66
2021/05/01 06:55:18;;;;;;;54.80;28.57;;;8.60;99.90;;;;;;4437515;28;656645;-66
2021/05/01 06:58:06;;;;;;;44.17;25.70;;;8.70;99.90;;;;;;4460126;28;657408;-67
2021/05/01 07:00:53;;;;;;;39.33;23.97;;;8.80;99.90;;;;;;4431710;28;656429;-66
2021/05/01 07:03:41;;;;;;;37.42;23.05;;;8.80;99.90;;;;;;4449925;28;656420;-66
2021/05/01 07:06:28;;;;;;;44.13;25.27;;;8.80;99.90;;;;;;4438397;28;657664;-66
2021/05/01 07:09:15;;;;;;;40.07;23.17;;;8.90;99.90;;;;;;4463352;28;656843;-65
2021/05/01 07:12:02;;;;;;;39.50;23.73;;;8.90;99.90;;;;;;4434678;28;656859;-66
2021/05/01 07:14:50;;;;;;;37.60;23.60;;;8.90;99.90;;;;;;4453044;28;657471;-65
2021/05/01 07:17:37;;;;;;;45.23;24.07;;;8.90;99.90;;;;;;4437360;28;656428;-65
2021/05/01 07:20:25;;;;;;;43.00;26.73;;;8.90;99.90;;;;;;4462118;28;657765;-66
2021/05/01 07:23:12;;;;;;;48.60;27.77;;;9.00;99.90;;;;;;4455695;28;656046;-66
2021/05/01 07:25:59;;;;;;;43.50;25.63;;;9.10;99.90;;;;;;4456635;28;656758;-66
2021/05/01 07:28:47;;;;;;;46.23;27.23;;;9.30;99.90;;;;;;4471855;27;656568;-65
2021/05/01 07:31:36;;;;;;;41.07;24.00;;;9.50;99.90;;;;;;4437637;28;658036;-65
2021/05/01 07:34:22;;;;;;;36.23;22.43;;;9.50;99.90;;;;;;4446699;28;656435;-66
2021/05/01 07:37:11;;;;;;;37.20;23.17;;;9.40;99.90;;;;;;4449100;28;657576;-65
2021/05/01 07:39:58;;;;;;;38.80;23.30;;;9.40;99.90;;;;;;4438160;28;656238;-65
2021/05/01 07:42:45;;;;;;;34.87;21.63;;;9.50;99.90;;;;;;4459444;28;656422;-65
2021/05/01 07:45:32;;;;;;;36.93;21.80;;;9.50;99.90;;;;;;4437398;28;656720;-66
2021/05/01 07:48:20;;;;;;;36.03;21.83;;;9.30;99.90;;;;;;4468087;28;657568;-65
2021/05/01 07:51:07;;;;;;;38.70;23.67;;;9.30;99.90;;;;;;4439971;28;656644;-66
2021/05/01 07:53:54;;;;;;;39.37;23.60;;;9.30;99.90;;;;;;4453395;28;657568;-65
2021/05/01 07:56:41;;;;;;;36.27;23.03;;;9.20;99.90;;;;;;4449958;28;656715;-66
2021/05/01 07:59:28;;;;;;;36.00;22.27;;;9.30;99.90;;;;;;4437348;28;656568;-66
2021/05/01 08:02:15;;;;;;;35.83;23.07;;;9.40;99.90;;;;;;4459942;28;656714;-66
2021/05/01 08:05:04;;;;;;;36.73;21.93;;;9.50;99.90;;;;;;4438092;28;656427;-65
2021/05/01 08:07:52;;;;;;;33.80;21.50;;;9.70;99.90;;;;;;4449034;28;656938;-65
2021/05/01 08:10:39;;;;;;;35.08;21.27;;;9.60;99.90;;;;;;4430873;28;657301;-66
2021/05/01 08:13:26;;;;;;;33.65;22.02;;;9.70;99.90;;;;;;4459145;28;656755;-66
2021/05/01 08:16:14;;;;;;;37.25;22.52;;;9.70;99.90;;;;;;4439575;28;656275;-65
2021/05/01 08:19:02;;;;;;;33.93;21.80;;;9.80;99.90;;;;;;4457410;28;657248;-65
2021/05/01 08:21:50;;;;;;;39.93;24.93;;;9.80;99.90;;;;;;4432520;28;656936;-65
2021/05/01 08:24:37;;;;;;;42.77;24.27;;;9.90;99.90;;;;;;4458880;28;657027;-65
2021/05/01 08:27:25;;;;;;;41.60;26.67;;;10.00;99.90;;;;;;4460252;28;658001;-65
2021/05/01 08:30:15;;;;;;;38.57;24.40;;;10.20;99.90;;;;;;4440541;28;657314;-65
2021/05/01 08:33:03;;;;;;;43.47;25.90;;;10.50;99.90;;;;;;4444849;28;657929;-65
2021/05/01 08:35:49;;;;;;;39.73;24.67;;;10.50;99.90;;;;;;4456371;28;658979;-65
2021/05/01 08:38:37;;;;;;;41.83;25.50;;;10.50;99.90;;;;;;4456377;28;657091;-65
2021/05/01 08:41:25;;;;;;;42.50;25.40;;;10.50;99.90;;;;;;4436928;28;658009;-66
2021/05/01 08:44:12;;;;;;;40.40;25.50;;;10.40;99.90;;;;;;4461554;28;657189;-65
2021/05/01 08:46:59;;;;;;;40.57;25.03;;;10.40;99.90;;;;;;4442999;28;658191;-65
2021/05/01 08:49:46;;;;;;;42.77;24.57;;;10.40;99.90;;;;;;4459177;28;657613;-65
2021/05/01 08:52:33;;;;;;;45.27;27.70;;;10.30;99.90;;;;;;4438417;28;657432;-65
2021/05/01 08:55:23;;;;;;;39.30;25.40;;;10.30;99.90;;;;;;4455149;28;658724;-65
2021/05/01 08:58:10;;;;;;;44.53;24.90;;;10.30;99.90;;;;;;4447209;28;658265;-65
2021/05/01 09:00:57;;;;;;;41.70;26.10;;;10.40;99.90;;;;;;4453269;28;657667;-65
2021/05/01 09:03:44;;;;;;;39.87;24.87;;;10.40;99.90;;;;;;4463448;28;658731;-65
2021/05/01 09:06:31;;;;;;;40.30;26.47;;;10.40;99.90;;;;;;4465117;27;657370;-65
2021/05/01 09:09:18;;;;;;;40.83;24.53;;;10.50;99.90;;;;;;4436611;28;657738;-65
2021/05/01 09:12:07;;;;;;;40.77;23.83;;;10.60;99.90;;;;;;4457912;28;658696;-65
2021/05/01 09:14:57;;;;;;;36.57;22.97;;;10.70;99.90;;;;;;4430748;28;658709;-65
2021/05/01 09:17:44;;;;;;;37.77;23.43;;;10.70;99.90;;;;;;4436046;28;658335;-65
2021/05/01 09:20:32;;;;;;;36.00;23.47;;;10.60;99.90;;;;;;4449651;28;657687;-65
2021/05/01 09:23:19;;;;;;;38.33;24.07;;;10.40;99.90;;;;;;4432519;28;658960;-65
2021/05/01 09:26:06;;;;;;;41.17;25.13;;;10.30;99.90;;;;;;4464448;28;658212;-65
2021/05/01 09:28:54;;;;;;;39.73;24.40;;;10.40;99.90;;;;;;4438304;28;657617;-65
2021/05/01 09:31:41;;;;;;;42.80;24.07;;;10.50;99.90;;;;;;4464028;28;657852;-65
2021/05/01 09:34:38;;;;;;;38.05;23.77;;;10.60;99.90;;;;;;4438444;28;657451;-65
2021/05/01 09:37:27;;;;;;;41.23;25.10;;;10.60;99.90;;;;;;4434636;28;658249;-65
2021/05/01 09:40:14;;;;;;;39.73;24.30;;;10.60;99.90;;;;;;4434633;28;658425;-65
2021/05/01 09:43:08;;;;;;;39.20;23.50;;;10.60;99.90;;;;;;4449701;28;657056;-65
2021/05/01 09:45:56;;;;;;;40.10;25.13;;;10.60;99.90;;;;;;4426617;28;658304;-65
2021/05/01 09:48:43;;;;;;;40.53;24.63;;;10.60;99.90;;;;;;4434213;28;658491;-65
2021/05/01 09:51:42;;;;;;;47.63;27.33;;;10.50;99.90;;;;;;4452630;28;657811;-66
2021/05/01 09:54:30;;;;;;;39.43;25.10;;;10.60;99.90;;;;;;4403732;28;658425;-66
2021/05/01 09:57:18;;;;;;;43.27;26.67;;;10.60;99.90;;;;;;4442484;28;657957;-65
2021/05/01 10:00:06;;;;;;;42.50;25.93;;;10.70;99.90;;;;;;4458554;28;658779;-65
2021/05/01 10:02:54;;;;;;;45.60;26.77;;;10.70;99.90;;;;;;4433083;28;657672;-65
2021/05/01 10:05:41;;;;;;;42.10;27.20;;;10.60;99.90;;;;;;4455543;28;657194;-65
2021/05/01 10:08:31;;;;;;;45.40;28.67;;;10.50;99.90;;;;;;4440234;28;657172;-65
2021/05/01 10:11:18;;;;;;;40.83;25.73;;;10.60;99.90;;;;;;4439595;28;658306;-65
2021/05/01 10:14:06;;;;;;;43.13;26.43;;;10.70;99.90;;;;;;4465749;28;657866;-66
2021/05/01 10:16:54;;;;;;;46.23;27.77;;;10.80;99.90;;;;;;4438196;28;657286;-65
2021/05/01 10:19:49;;;;;;;48.20;28.67;;;10.90;99.90;;;;;;4463945;28;657222;-65
2021/05/01 10:22:37;;;;;;;47.80;28.70;;;11.00;99.90;;;;;;4435495;28;657403;-66
2021/05/01 10:25:26;;;;;;;66.97;38.67;;;11.00;99.90;;;;;;4433047;28;659215;-65
2021/05/01 10:28:14;;;;;;;75.67;41.83;;;11.10;99.90;;;;;;4437902;28;657397;-65
2021/05/01 10:31:02;;;;;;;49.43;28.60;;;11.20;99.90;;;;;;4456042;28;657341;-66
2021/05/01 10:33:49;;;;;;;80.10;41.67;;;11.30;99.90;;;;;;4433266;28;658067;-65
2021/05/01 10:36:38;;;;;;;71.03;35.63;;;11.60;99.90;;;;;;4464650;28;657884;-65
2021/05/01 10:39:25;;;;;;;51.37;30.67;;;12.00;99.90;;;;;;4425082;28;659063;-65
2021/05/01 10:42:13;;;;;;;51.93;31.93;;;12.30;99.90;;;;;;4453021;28;658931;-66
2021/05/01 10:45:01;;;;;;;53.70;31.13;;;12.50;99.90;;;;;;4465081;28;658452;-65
2021/05/01 10:48:04;;;;;;;48.73;29.70;;;12.70;99.90;;;;;;4429295;28;657452;-66
2021/05/01 10:51:02;;;;;;;61.33;35.00;;;12.70;99.90;;;;;;4435521;28;657300;-65
2021/05/01 10:54:06;;;;;;;93.73;49.77;;;12.70;99.90;;;;;;4404649;28;658832;-65
2021/05/01 10:56:54;;;;;;;51.40;31.37;;;12.70;99.90;;;;;;4402454;28;657607;-65
2021/05/01 10:59:41;;;;;;;53.23;31.30;;;12.90;99.90;;;;;;4447000;28;657303;-65
2021/05/01 11:02:33;;;;;;;47.10;28.43;;;12.90;99.90;;;;;;4428643;28;657934;-65
2021/05/01 11:05:20;;;;;;;47.43;27.77;;;12.80;99.90;;;;;;4426044;28;657691;-65
2021/05/01 11:08:27;;;;;;;46.80;26.20;;;12.60;99.90;;;;;;4438966;28;657317;-65
2021/05/01 11:11:15;;;;;;;45.83;26.40;;;12.50;99.90;;;;;;4403076;28;657686;-65
2021/05/01 11:14:08;;;;;;;44.40;27.47;;;12.20;99.90;;;;;;4445189;28;657916;-65
2021/05/01 11:17:04;;;;;;;44.53;27.63;;;12.00;99.90;;;;;;4443814;28;657547;-65
2021/05/01 11:19:52;;;;;;;50.60;28.13;;;12.10;99.90;;;;;;4431669;28;657371;-65
2021/05/01 11:22:40;;;;;;;47.40;27.03;;;12.20;99.90;;;;;;4432310;28;659022;-65
2021/05/01 11:25:28;;;;;;;48.63;28.37;;;12.30;99.90;;;;;;4460649;28;657819;-66
2021/05/01 11:28:16;;;;;;;45.67;27.47;;;12.20;99.90;;;;;;4453903;28;657956;-65
2021/05/01 11:31:03;;;;;;;49.30;28.58;;;12.20;99.90;;;;;;4438166;28;657387;-65
2021/05/01 11:33:50;;;;;;;50.07;30.27;;;12.10;99.90;;;;;;4464370;28;658901;-65
2021/05/01 11:36:43;;;;;;;47.70;27.77;;;12.10;99.90;;;;;;4437476;28;657372;-65
2021/05/01 11:39:30;;;;;;;45.75;28.20;;;12.30;99.90;;;;;;4439849;28;658620;-66
2021/05/01 11:42:17;;;;;;;50.70;29.55;;;12.30;99.90;;;;;;4430730;28;657941;-66
2021/05/01 11:45:07;;;;;;;46.40;27.37;;;12.30;99.90;;;;;;4462750;28;657505;-65
2021/05/01 11:48:00;;;;;;;48.33;28.17;;;12.40;99.90;;;;;;4439570;28;657927;-66
2021/05/01 11:50:48;;;;;;;44.70;27.90;;;12.60;99.90;;;;;;4426697;28;657502;-65
2021/05/01 11:53:38;;;;;;;45.60;27.23;;;12.80;99.90;;;;;;4457222;28;658186;-66
2021/05/01 11:56:28;;;;;;;47.67;27.60;;;12.70;99.90;;;;;;4434990;28;657677;-65
2021/05/01 11:59:15;;;;;;;47.77;28.40;;;12.70;99.90;;;;;;4438573;28;658479;-65
2021/05/01 12:02:04;;;;;;;45.00;27.13;;;12.90;99.90;;;;;;4430867;28;658347;-65
2021/05/01 12:04:59;;;;;;;46.30;27.50;;;13.00;99.90;;;;;;4449376;28;658303;-65
2021/05/01 12:07:48;;;;;;;45.87;27.70;;;13.10;99.90;;;;;;4424862;28;658006;-64
2021/05/01 12:10:37;;;;;;;56.00;30.80;;;13.20;99.90;;;;;;4433121;28;657765;-65
2021/05/01 12:13:27;;;;;;;49.77;30.37;;;13.30;99.90;;;;;;4429108;28;658351;-65
2021/05/01 12:16:18;;;;;;;49.93;30.30;;;13.10;99.90;;;;;;4440505;28;658067;-65
2021/05/01 12:19:06;;;;;;;48.23;30.13;;;13.10;99.90;;;;;;4431821;28;658276;-65
2021/05/01 12:21:55;;;;;;;64.50;36.08;;;13.00;99.90;;;;;;4432652;28;658046;-65
2021/05/01 12:24:43;;;;;;;57.80;33.23;;;13.10;99.90;;;;;;4458282;28;657848;-65
2021/05/01 12:27:50;;;;;;;71.27;38.10;;;13.40;99.90;;;;;;4461036;28;658335;-66
2021/05/01 12:30:59;;;;;;;62.53;36.17;;;13.80;99.90;;;;;;4427469;28;657590;-66
2021/05/01 12:33:55;;;;;;;45.00;28.67;;;14.10;99.90;;;;;;4439687;28;657525;-65
2021/05/01 12:36:44;;;;;;;47.57;27.40;;;14.20;99.90;;;;;;4411596;28;657934;-65
2021/05/01 12:39:31;;;;;;;48.43;28.17;;;14.10;99.90;;;;;;4468226;28;657520;-65
2021/05/01 12:42:22;;;;;;;48.20;29.67;;;14.20;99.90;;;;;;4441016;28;658153;-65
2021/05/01 12:45:30;;;;;;;46.63;28.33;;;14.20;99.90;;;;;;4444383;28;658306;-65
2021/05/01 12:48:50;;;;;;;54.50;32.07;;;14.30;99.90;;;;;;4409140;28;657402;-65
2021/05/01 12:51:37;;;;;;;54.23;32.80;;;14.40;99.90;;;;;;4421761;28;657779;-65
2021/05/01 12:54:33;;;;;;;49.90;30.05;;;14.40;99.90;;;;;;4456238;28;657851;-65
2021/05/01 12:57:27;;;;;;;50.07;29.83;;;14.10;99.90;;;;;;4410347;28;657732;-66
2021/05/01 13:00:25;;;;;;;53.53;30.57;;;14.00;99.90;;;;;;4414059;28;659235;-65
2021/05/01 13:03:19;;;;;;;52.43;31.57;;;13.80;99.90;;;;;;4422089;28;657565;-65
2021/05/01 13:06:06;;;;;;;59.05;31.88;;;13.70;99.90;;;;;;4437881;28;658175;-65
2021/05/01 13:08:53;;;;;;;49.27;30.20;;;13.40;99.90;;;;;;4442466;28;658782;-67
2021/05/01 13:11:41;;;;;;;46.73;29.77;;;13.30;99.90;;;;;;4458651;28;658854;-66
2021/05/01 13:14:28;;;;;;;48.67;30.50;;;13.40;99.90;;;;;;4433932;28;658295;-66
2021/05/01 13:17:15;;;;;;;50.30;30.23;;;13.60;99.90;;;;;;4458721;28;658788;-66
2021/05/01 13:20:13;;;;;;;46.97;29.03;;;13.70;99.90;;;;;;4439649;28;657369;-66
2021/05/01 13:23:01;;;;;;;195.63;81.60;;;13.70;99.90;;;;;;4434896;28;658321;-66
2021/05/01 13:25:49;;;;;;;148.77;68.47;;;13.90;99.90;;;;;;4433258;28;659359;-66
2021/05/01 13:28:37;;;;;;;61.75;36.03;;;13.90;99.90;;;;;;4464953;28;658522;-66
2021/05/01 13:31:25;;;;;;;47.70;29.07;;;14.00;99.90;;;;;;4427322;28;658262;-66
2021/05/01 13:34:15;;;;;;;45.83;28.13;;;14.10;99.90;;;;;;4456625;28;657927;-66
2021/05/01 13:37:02;;;;;;;50.20;27.77;;;14.00;99.90;;;;;;4415515;28;657677;-66
2021/05/01 13:39:49;;;;;;;42.83;26.77;;;14.10;99.90;;;;;;4454246;28;658750;-66
2021/05/01 13:42:39;;;;;;;43.65;27.75;;;14.10;99.90;;;;;;4461855;28;658598;-66
2021/05/01 13:45:27;;;;;;;43.30;27.13;;;14.20;99.90;;;;;;4428197;28;657546;-66
2021/05/01 13:48:15;;;;;;;47.70;27.07;;;14.30;99.90;;;;;;4430638;28;658766;-66
2021/05/01 13:51:02;;;;;;;44.35;26.88;;;14.30;99.90;;;;;;4448841;28;657821;-65
2021/05/01 13:53:49;;;;;;;42.93;26.77;;;14.30;99.90;;;;;;4469993;28;657597;-65
2021/05/01 13:56:41;;;;;;;50.27;28.53;;;14.20;99.90;;;;;;4458416;28;657803;-66
2021/05/01 13:59:28;;;;;;;46.50;28.33;;;14.10;99.90;;;;;;4439704;28;657441;-65
2021/05/01 14:02:16;;;;;;;45.73;28.03;;;14.00;99.90;;;;;;4463483;28;658223;-69
2021/05/01 14:05:04;;;;;;;43.53;26.70;;;14.00;99.90;;;;;;4438233;28;657890;-69
2021/05/01 14:07:51;;;;;;;40.37;26.00;;;13.90;99.90;;;;;;4455472;28;657936;-69
2021/05/01 14:10:38;;;;;;;41.63;25.43;;;13.80;99.90;;;;;;4437960;28;657316;-71